sensor_id;sensor_type;location;lat;lon;timestamp;pressure;altitude;pressure_sealevel;temperature;humidity
14067;BME280;7108;42.684;23.350;2023-02-21T00:00:25;95724.91;;;6.69;100.00
14067;BME280;7108;42.684;23.350;2023-02-21T00:03:09;95730.25;;;6.78;100.00
14067;BME280;7108;42.684;23.350;2023-02-21T00:05:53;95723.50;;;6.72;100.00
14067;BME280;7108;42.684;23.350;2023-02-21T00:08:37;95735.44;;;6.74;100.00
14067;BME280;7108;42.684;23.350;2023-02-21T00:11:21;95722.59;;;6.59;100.00
14067;BME280;7108;42.684;23.350;2023-02-21T00:14:05;95744.13;;;6.71;100.00
14067;BME280;7108;42.684;23.350;2023-02-21T00:16:49;95738.47;;;6.64;100.00
14067;BME280;7108;42.684;23.350;2023-02-21T00:19:33;95736.59;;;6.65;100.00
14067;BME280;7108;42.684;23.350;2023-02-21T00:22:17;95737.69;;;6.64;100.00
14067;BME280;7108;42.684;23.350;2023-02-21T00:25:01;95735.81;;;6.64;100.00
14067;BME280;7108;42.684;23.350;2023-02-21T00:27:45;95721.84;;;6.51;100.00
14067;BME280;7108;42.684;23.350;2023-02-21T00:30:29;95732.56;;;6.42;100.00
14067;BME280;7108;42.684;23.350;2023-02-21T00:33:13;95716.03;;;6.40;100.00
14067;BME280;7108;42.684;23.350;2023-02-21T00:35:57;95708.94;;;6.36;100.00
14067;BME280;7108;42.684;23.350;2023-02-21T00:38:41;95715.56;;;6.38;100.00
14067;BME280;7108;42.684;23.350;2023-02-21T00:41:25;95721.06;;;6.42;100.00
14067;BME280;7108;42.684;23.350;2023-02-21T00:44:09;95726.25;;;6.47;100.00
14067;BME280;7108;42.684;23.350;2023-02-21T00:46:53;95729.75;;;6.30;100.00
14067;BME280;7108;42.684;23.350;2023-02-21T00:49:37;95725.34;;;6.34;100.00
14067;BME280;7108;42.684;23.350;2023-02-21T00:52:21;95700.63;;;6.37;100.00
14067;BME280;7108;42.684;23.350;2023-02-21T00:55:05;95711.16;;;6.42;100.00
14067;BME280;7108;42.684;23.350;2023-02-21T00:57:49;95701.84;;;6.48;100.00
14067;BME280;7108;42.684;23.350;2023-02-21T01:00:33;95695.38;;;6.49;100.00
14067;BME280;7108;42.684;23.350;2023-02-21T01:03:17;95685.75;;;6.56;100.00
14067;BME280;7108;42.684;23.350;2023-02-21T01:06:00;95678.69;;;6.52;100.00
14067;BME280;7108;42.684;23.350;2023-02-21T01:08:45;95673.94;;;6.57;100.00
14067;BME280;7108;42.684;23.350;2023-02-21T01:11:30;95670.19;;;6.50;100.00
14067;BME280;7108;42.684;23.350;2023-02-21T01:14:14;95690.66;;;6.54;100.00
14067;BME280;7108;42.684;23.350;2023-02-21T01:16:59;95660.28;;;6.51;100.00
14067;BME280;7108;42.684;23.350;2023-02-21T01:19:43;95665.28;;;6.60;100.00
14067;BME280;7108;42.684;23.350;2023-02-21T01:22:27;95648.00;;;6.50;100.00
14067;BME280;7108;42.684;23.350;2023-02-21T01:25:13;95656.19;;;6.53;100.00
14067;BME280;7108;42.684;23.350;2023-02-21T01:27:57;95641.38;;;6.55;100.00
14067;BME280;7108;42.684;23.350;2023-02-21T01:30:42;95654.38;;;6.65;100.00
14067;BME280;7108;42.684;23.350;2023-02-21T01:33:26;95649.66;;;6.62;100.00
14067;BME280;7108;42.684;23.350;2023-02-21T01:36:10;95644.94;;;6.68;100.00
14067;BME280;7108;42.684;23.350;2023-02-21T01:38:54;95644.03;;;6.55;100.00
14067;BME280;7108;42.684;23.350;2023-02-21T01:41:41;95647.50;;;6.56;100.00
14067;BME280;7108;42.684;23.350;2023-02-21T01:44:41;95653.59;;;6.65;100.00
14067;BME280;7108;42.684;23.350;2023-02-21T01:47:26;95643.88;;;6.60;100.00
14067;BME280;7108;42.684;23.350;2023-02-21T01:50:29;95631.28;;;6.52;100.00
14067;BME280;7108;42.684;23.350;2023-02-21T01:53:18;95650.56;;;6.66;100.00
14067;BME280;7108;42.684;23.350;2023-02-21T01:56:03;95610.22;;;6.43;100.00
14067;BME280;7108;42.684;23.350;2023-02-21T01:58:48;95632.63;;;6.67;100.00
14067;BME280;7108;42.684;23.350;2023-02-21T02:01:46;95624.56;;;6.38;100.00
14067;BME280;7108;42.684;23.350;2023-02-21T02:04:33;95626.25;;;6.51;100.00
14067;BME280;7108;42.684;23.350;2023-02-21T02:07:17;95603.31;;;6.42;100.00
14067;BME280;7108;42.684;23.350;2023-02-21T02:10:06;95616.81;;;6.53;100.00
14067;BME280;7108;42.684;23.350;2023-02-21T02:15:56;95608.81;;;6.45;100.00
14067;BME280;7108;42.684;23.350;2023-02-21T02:24:42;95607.84;;;6.50;100.00
14067;BME280;7108;42.684;23.350;2023-02-21T02:27:57;95601.06;;;6.52;100.00
14067;BME280;7108;42.684;23.350;2023-02-21T02:30:45;95595.25;;;6.50;100.00
14067;BME280;7108;42.684;23.350;2023-02-21T02:38:25;95590.22;;;6.49;100.00
14067;BME280;7108;42.684;23.350;2023-02-21T02:44:23;95600.78;;;6.45;100.00
14067;BME280;7108;42.684;23.350;2023-02-21T02:46:51;95598.75;;;6.42;100.00
14067;BME280;7108;42.684;23.350;2023-02-21T02:49:22;95589.47;;;6.40;100.00
14067;BME280;7108;42.684;23.350;2023-02-21T02:51:50;95594.66;;;6.45;100.00
14067;BME280;7108;42.684;23.350;2023-02-21T02:54:16;95584.13;;;6.40;100.00
14067;BME280;7108;42.684;23.350;2023-02-21T02:56:42;95592.16;;;6.40;100.00
14067;BME280;7108;42.684;23.350;2023-02-21T02:59:11;95586.16;;;6.43;100.00
14067;BME280;7108;42.684;23.350;2023-02-21T03:12:31;95593.38;;;6.51;100.00
14067;BME280;7108;42.684;23.350;2023-02-21T03:15:23;95595.91;;;6.47;100.00
14067;BME280;7108;42.684;23.350;2023-02-21T03:18:25;95603.94;;;6.47;100.00
14067;BME280;7108;42.684;23.350;2023-02-21T03:20:59;95574.88;;;6.29;100.00
14067;BME280;7108;42.684;23.350;2023-02-21T03:23:30;95582.00;;;6.25;100.00
14067;BME280;7108;42.684;23.350;2023-02-21T03:26:00;95587.63;;;6.32;100.00
14067;BME280;7108;42.684;23.350;2023-02-21T03:28:28;95561.41;;;6.17;100.00
14067;BME280;7108;42.684;23.350;2023-02-21T03:30:55;95557.47;;;6.14;100.00
14067;BME280;7108;42.684;23.350;2023-02-21T03:33:23;95576.31;;;6.26;100.00
14067;BME280;7108;42.684;23.350;2023-02-21T03:35:50;95580.72;;;6.22;100.00
14067;BME280;7108;42.684;23.350;2023-02-21T03:38:17;95560.63;;;6.16;100.00
14067;BME280;7108;42.684;23.350;2023-02-21T03:40:45;95566.28;;;6.15;100.00
14067;BME280;7108;42.684;23.350;2023-02-21T03:43:11;95566.97;;;6.03;100.00
14067;BME280;7108;42.684;23.350;2023-02-21T03:45:36;95582.47;;;6.18;100.00
14067;BME280;7108;42.684;23.350;2023-02-21T03:48:04;95583.31;;;6.10;100.00
14067;BME280;7108;42.684;23.350;2023-02-21T03:50:42;95592.41;;;6.18;100.00
14067;BME280;7108;42.684;23.350;2023-02-21T03:53:08;95586.22;;;5.88;100.00
14067;BME280;7108;42.684;23.350;2023-02-21T03:55:34;95596.56;;;5.98;100.00
14067;BME280;7108;42.684;23.350;2023-02-21T03:58:02;95604.88;;;6.05;100.00
14067;BME280;7108;42.684;23.350;2023-02-21T04:00:28;95581.28;;;5.99;100.00
14067;BME280;7108;42.684;23.350;2023-02-21T04:02:53;95583.66;;;6.00;100.00
14067;BME280;7108;42.684;23.350;2023-02-21T04:05:19;95596.69;;;6.10;100.00
14067;BME280;7108;42.684;23.350;2023-02-21T04:07:45;95590.09;;;6.08;100.00
14067;BME280;7108;42.684;23.350;2023-02-21T04:10:11;95607.53;;;6.14;100.00
14067;BME280;7108;42.684;23.350;2023-02-21T04:12:39;95610.97;;;6.14;100.00
14067;BME280;7108;42.684;23.350;2023-02-21T04:15:05;95610.69;;;6.07;100.00
14067;BME280;7108;42.684;23.350;2023-02-21T04:17:34;95603.13;;;6.09;100.00
14067;BME280;7108;42.684;23.350;2023-02-21T04:20:02;95606.34;;;5.86;100.00
14067;BME280;7108;42.684;23.350;2023-02-21T04:22:31;95615.75;;;6.00;100.00
14067;BME280;7108;42.684;23.350;2023-02-21T04:24:57;95612.78;;;5.93;100.00
14067;BME280;7108;42.684;23.350;2023-02-21T04:27:22;95624.88;;;5.99;100.00
14067;BME280;7108;42.684;23.350;2023-02-21T04:29:48;95626.72;;;6.07;100.00
14067;BME280;7108;42.684;23.350;2023-02-21T04:32:14;95596.75;;;5.85;100.00
14067;BME280;7108;42.684;23.350;2023-02-21T04:34:39;95613.09;;;5.92;100.00
14067;BME280;7108;42.684;23.350;2023-02-21T04:37:05;95626.31;;;5.88;100.00
14067;BME280;7108;42.684;23.350;2023-02-21T04:39:30;95626.97;;;5.77;100.00
14067;BME280;7108;42.684;23.350;2023-02-21T04:41:58;95631.50;;;5.77;100.00
14067;BME280;7108;42.684;23.350;2023-02-21T04:44:26;95634.50;;;5.84;100.00
14067;BME280;7108;42.684;23.350;2023-02-21T04:46:52;95626.78;;;5.74;100.00
14067;BME280;7108;42.684;23.350;2023-02-21T04:49:17;95624.13;;;5.65;100.00
14067;BME280;7108;42.684;23.350;2023-02-21T04:51:43;95615.44;;;5.68;100.00
14067;BME280;7108;42.684;23.350;2023-02-21T04:54:08;95611.25;;;5.67;100.00
14067;BME280;7108;42.684;23.350;2023-02-21T04:56:34;95624.88;;;5.74;100.00
14067;BME280;7108;42.684;23.350;2023-02-21T04:59:01;95610.59;;;5.62;100.00
14067;BME280;7108;42.684;23.350;2023-02-21T05:01:30;95612.00;;;5.59;100.00
14067;BME280;7108;42.684;23.350;2023-02-21T05:03:57;95566.78;;;5.29;100.00
14067;BME280;7108;42.684;23.350;2023-02-21T05:06:24;95585.78;;;5.53;100.00
14067;BME280;7108;42.684;23.350;2023-02-21T05:08:50;95602.28;;;5.55;100.00
14067;BME280;7108;42.684;23.350;2023-02-21T05:11:17;95609.81;;;5.61;100.00
14067;BME280;7108;42.684;23.350;2023-02-21T05:13:44;95580.44;;;5.44;100.00
14067;BME280;7108;42.684;23.350;2023-02-21T05:16:10;95592.53;;;5.50;100.00
14067;BME280;7108;42.684;23.350;2023-02-21T05:18:35;95588.28;;;5.49;100.00
14067;BME280;7108;42.684;23.350;2023-02-21T05:21:05;95584.38;;;5.55;100.00
14067;BME280;7108;42.684;23.350;2023-02-21T05:23:31;95577.13;;;5.56;100.00
14067;BME280;7108;42.684;23.350;2023-02-21T05:26:04;95600.84;;;5.66;100.00
14067;BME280;7108;42.684;23.350;2023-02-21T05:28:30;95582.19;;;5.49;100.00
14067;BME280;7108;42.684;23.350;2023-02-21T05:30:56;95585.94;;;5.48;100.00
14067;BME280;7108;42.684;23.350;2023-02-21T05:33:22;95590.16;;;5.66;100.00
14067;BME280;7108;42.684;23.350;2023-02-21T05:35:49;95579.19;;;5.42;100.00
14067;BME280;7108;42.684;23.350;2023-02-21T05:38:18;95600.56;;;5.59;100.00
14067;BME280;7108;42.684;23.350;2023-02-21T05:40:44;95597.09;;;5.50;100.00
14067;BME280;7108;42.684;23.350;2023-02-21T05:43:09;95599.91;;;5.62;100.00
14067;BME280;7108;42.684;23.350;2023-02-21T05:45:35;95600.84;;;5.66;100.00
14067;BME280;7108;42.684;23.350;2023-02-21T05:48:03;95606.34;;;5.78;100.00
14067;BME280;7108;42.684;23.350;2023-02-21T05:50:29;95603.81;;;5.73;100.00
14067;BME280;7108;42.684;23.350;2023-02-21T05:52:59;95616.09;;;5.74;100.00
14067;BME280;7108;42.684;23.350;2023-02-21T05:55:25;95579.50;;;5.49;100.00
14067;BME280;7108;42.684;23.350;2023-02-21T05:57:51;95593.59;;;5.75;100.00
14067;BME280;7108;42.684;23.350;2023-02-21T06:00:19;95608.50;;;6.01;100.00
14067;BME280;7108;42.684;23.350;2023-02-21T06:02:45;95621.63;;;6.31;100.00
14067;BME280;7108;42.684;23.350;2023-02-21T06:05:11;95623.25;;;6.52;100.00
14067;BME280;7108;42.684;23.350;2023-02-21T06:07:37;95617.81;;;6.69;100.00
14067;BME280;7108;42.684;23.350;2023-02-21T06:10:03;95621.28;;;6.70;100.00
14067;BME280;7108;42.684;23.350;2023-02-21T06:12:30;95625.25;;;6.93;100.00
14067;BME280;7108;42.684;23.350;2023-02-21T06:14:58;95595.72;;;7.01;100.00
14067;BME280;7108;42.684;23.350;2023-02-21T06:17:24;95615.03;;;7.35;100.00
14067;BME280;7108;42.684;23.350;2023-02-21T06:19:50;95622.00;;;7.48;100.00
14067;BME280;7108;42.684;23.350;2023-02-21T06:22:15;95618.72;;;7.63;100.00
14067;BME280;7108;42.684;23.350;2023-02-21T06:24:41;95625.75;;;7.88;100.00
14067;BME280;7108;42.684;23.350;2023-02-21T06:27:07;95619.59;;;7.87;100.00
14067;BME280;7108;42.684;23.350;2023-02-21T06:29:33;95622.44;;;8.03;100.00
14067;BME280;7108;42.684;23.350;2023-02-21T06:31:59;95593.56;;;8.00;99.00
14067;BME280;7108;42.684;23.350;2023-02-21T06:34:26;95609.22;;;8.54;97.23
14067;BME280;7108;42.684;23.350;2023-02-21T06:36:53;95600.94;;;8.35;91.69
14067;BME280;7108;42.684;23.350;2023-02-21T06:39:18;95615.84;;;8.12;90.26
14067;BME280;7108;42.684;23.350;2023-02-21T06:41:44;95627.63;;;8.20;92.35
14067;BME280;7108;42.684;23.350;2023-02-21T06:44:10;95619.72;;;8.23;92.26
14067;BME280;7108;42.684;23.350;2023-02-21T06:46:35;95631.03;;;8.41;88.90
14067;BME280;7108;42.684;23.350;2023-02-21T06:49:03;95610.13;;;8.46;86.85
14067;BME280;7108;42.684;23.350;2023-02-21T06:51:36;95643.03;;;8.55;85.96
14067;BME280;7108;42.684;23.350;2023-02-21T06:54:02;95613.28;;;8.60;86.85
14067;BME280;7108;42.684;23.350;2023-02-21T06:56:27;95619.53;;;8.64;84.19
14067;BME280;7108;42.684;23.350;2023-02-21T06:58:53;95627.38;;;8.81;83.53
14067;BME280;7108;42.684;23.350;2023-02-21T07:01:19;95607.22;;;8.87;83.19
14067;BME280;7108;42.684;23.350;2023-02-21T07:03:45;95629.97;;;9.01;83.17
14067;BME280;7108;42.684;23.350;2023-02-21T07:06:12;95608.34;;;8.86;81.62
14067;BME280;7108;42.684;23.350;2023-02-21T07:08:38;95621.72;;;9.21;80.09
14067;BME280;7108;42.684;23.350;2023-02-21T07:11:03;95625.63;;;9.36;79.20
14067;BME280;7108;42.684;23.350;2023-02-21T07:13:30;95629.41;;;9.59;78.61
14067;BME280;7108;42.684;23.350;2023-02-21T07:15:56;95625.66;;;9.90;76.63
14067;BME280;7108;42.684;23.350;2023-02-21T07:18:22;95597.81;;;10.10;71.30
14067;BME280;7108;42.684;23.350;2023-02-21T07:20:47;95605.50;;;10.54;69.75
14067;BME280;7108;42.684;23.350;2023-02-21T07:23:14;95612.88;;;10.73;68.18
14067;BME280;7108;42.684;23.350;2023-02-21T07:25:39;95607.47;;;10.88;67.07
14067;BME280;7108;42.684;23.350;2023-02-21T07:28:05;95595.56;;;10.74;67.82
14067;BME280;7108;42.684;23.350;2023-02-21T07:30:30;95600.75;;;10.82;67.19
14067;BME280;7108;42.684;23.350;2023-02-21T07:32:56;95599.28;;;10.85;65.71
14067;BME280;7108;42.684;23.350;2023-02-21T07:35:22;95596.94;;;10.83;67.21
14067;BME280;7108;42.684;23.350;2023-02-21T07:37:47;95591.81;;;10.94;68.77
14067;BME280;7108;42.684;23.350;2023-02-21T07:40:13;95597.69;;;11.14;66.37
14067;BME280;7108;42.684;23.350;2023-02-21T07:42:40;95570.66;;;11.11;65.63
14067;BME280;7108;42.684;23.350;2023-02-21T07:45:11;95577.97;;;11.29;63.83
14067;BME280;7108;42.684;23.350;2023-02-21T07:47:36;95567.13;;;11.45;62.31
14067;BME280;7108;42.684;23.350;2023-02-21T07:50:03;95583.38;;;11.64;62.11
14067;BME280;7108;42.684;23.350;2023-02-21T07:52:29;95561.13;;;11.70;61.58
14067;BME280;7108;42.684;23.350;2023-02-21T07:54:54;95577.63;;;11.65;59.64
14067;BME280;7108;42.684;23.350;2023-02-21T07:57:20;95580.44;;;11.72;60.08
14067;BME280;7108;42.684;23.350;2023-02-21T07:59:46;95561.78;;;11.64;60.57
14067;BME280;7108;42.684;23.350;2023-02-21T08:02:12;95554.22;;;11.54;60.33
14067;BME280;7108;42.684;23.350;2023-02-21T08:04:39;95569.00;;;11.60;60.89
14067;BME280;7108;42.684;23.350;2023-02-21T08:07:04;95574.69;;;11.55;59.34
14067;BME280;7108;42.684;23.350;2023-02-21T08:09:30;95573.38;;;11.49;59.28
14067;BME280;7108;42.684;23.350;2023-02-21T08:11:56;95563.00;;;11.32;59.79
14067;BME280;7108;42.684;23.350;2023-02-21T08:14:21;95551.03;;;11.14;60.50
14067;BME280;7108;42.684;23.350;2023-02-21T08:16:47;95569.66;;;11.19;61.65
14067;BME280;7108;42.684;23.350;2023-02-21T08:19:12;95568.31;;;11.10;62.04
14067;BME280;7108;42.684;23.350;2023-02-21T08:21:38;95555.69;;;10.98;61.62
14067;BME280;7108;42.684;23.350;2023-02-21T08:24:03;95550.69;;;10.81;64.49
14067;BME280;7108;42.684;23.350;2023-02-21T08:26:29;95546.34;;;10.77;64.88
14067;BME280;7108;42.684;23.350;2023-02-21T08:28:54;95568.31;;;10.94;64.71
14067;BME280;7108;42.684;23.350;2023-02-21T08:31:20;95567.59;;;10.97;65.69
14067;BME280;7108;42.684;23.350;2023-02-21T08:33:46;95543.97;;;10.91;64.61
14067;BME280;7108;42.684;23.350;2023-02-21T08:36:11;95517.75;;;10.72;63.30
14067;BME280;7108;42.684;23.350;2023-02-21T08:38:37;95545.38;;;10.85;63.42
14067;BME280;7108;42.684;23.350;2023-02-21T08:41:04;95535.06;;;10.71;63.36
14067;BME280;7108;42.684;23.350;2023-02-21T08:43:30;95534.28;;;10.71;65.36
14067;BME280;7108;42.684;23.350;2023-02-21T08:45:56;95529.25;;;10.69;64.68
14067;BME280;7108;42.684;23.350;2023-02-21T08:48:21;95535.50;;;10.73;64.86
14067;BME280;7108;42.684;23.350;2023-02-21T08:50:47;95525.69;;;10.65;65.37
14067;BME280;7108;42.684;23.350;2023-02-21T08:53:13;95525.34;;;10.67;64.88
14067;BME280;7108;42.684;23.350;2023-02-21T08:55:39;95532.88;;;10.77;64.66
14067;BME280;7108;42.684;23.350;2023-02-21T08:58:04;95543.97;;;10.91;64.26
14067;BME280;7108;42.684;23.350;2023-02-21T09:00:30;95540.38;;;11.02;65.01
14067;BME280;7108;42.684;23.350;2023-02-21T09:02:56;95538.19;;;11.08;64.54
14067;BME280;7108;42.684;23.350;2023-02-21T09:05:26;95536.50;;;11.18;64.56
14067;BME280;7108;42.684;23.350;2023-02-21T09:07:54;95528.34;;;11.15;63.12
14067;BME280;7108;42.684;23.350;2023-02-21T09:10:24;95515.56;;;11.12;62.31
14067;BME280;7108;42.684;23.350;2023-02-21T09:12:49;95529.34;;;11.26;62.69
14067;BME280;7108;42.684;23.350;2023-02-21T09:15:15;95522.66;;;11.20;63.75
14067;BME280;7108;42.684;23.350;2023-02-21T09:17:41;95520.63;;;11.13;64.05
14067;BME280;7108;42.684;23.350;2023-02-21T09:20:09;95510.19;;;11.12;66.53
14067;BME280;7108;42.684;23.350;2023-02-21T09:22:35;95516.88;;;11.37;65.38
14067;BME280;7108;42.684;23.350;2023-02-21T09:25:01;95523.34;;;11.51;62.77
14067;BME280;7108;42.684;23.350;2023-02-21T09:27:27;95522.91;;;11.68;62.38
14067;BME280;7108;42.684;23.350;2023-02-21T09:30:14;95504.84;;;11.72;61.24
14067;BME280;7108;42.684;23.350;2023-02-21T09:32:40;95492.44;;;11.68;60.90
14067;BME280;7108;42.684;23.350;2023-02-21T09:35:07;95517.53;;;11.90;60.50
14067;BME280;7108;42.684;23.350;2023-02-21T09:37:36;95492.59;;;11.97;60.46
14067;BME280;7108;42.684;23.350;2023-02-21T09:40:02;95497.47;;;12.10;59.70
14067;BME280;7108;42.684;23.350;2023-02-21T09:42:30;95466.13;;;12.06;59.35
14067;BME280;7108;42.684;23.350;2023-02-21T09:44:55;95469.31;;;12.11;58.63
14067;BME280;7108;42.684;23.350;2023-02-21T09:47:31;95486.97;;;12.28;58.34
14067;BME280;7108;42.684;23.350;2023-02-21T09:50:04;95480.13;;;12.34;57.44
14067;BME280;7108;42.684;23.350;2023-02-21T09:52:36;95482.84;;;12.37;58.21
14067;BME280;7108;42.684;23.350;2023-02-21T09:55:12;95484.16;;;12.46;57.70
14067;BME280;7108;42.684;23.350;2023-02-21T09:57:39;95472.03;;;12.37;57.26
14067;BME280;7108;42.684;23.350;2023-02-21T10:00:36;95485.00;;;12.50;55.93
14067;BME280;7108;42.684;23.350;2023-02-21T10:05:56;95459.03;;;12.43;55.61
14067;BME280;7108;42.684;23.350;2023-02-21T10:11:24;95463.09;;;12.85;54.82
14067;BME280;7108;42.684;23.350;2023-02-21T10:14:18;95452.28;;;12.85;53.17
14067;BME280;7108;42.684;23.350;2023-02-21T10:17:04;95442.81;;;12.94;54.01
14067;BME280;7108;42.684;23.350;2023-02-21T10:19:34;95447.63;;;13.08;53.39
14067;BME280;7108;42.684;23.350;2023-02-21T10:22:09;95427.66;;;13.19;52.03
14067;BME280;7108;42.684;23.350;2023-02-21T10:24:38;95424.00;;;13.37;52.17
14067;BME280;7108;42.684;23.350;2023-02-21T10:27:13;95419.50;;;13.48;52.03
14067;BME280;7108;42.684;23.350;2023-02-21T10:29:53;95426.38;;;13.78;49.42
14067;BME280;7108;42.684;23.350;2023-02-21T10:32:22;95414.16;;;13.95;48.48
14067;BME280;7108;42.684;23.350;2023-02-21T10:34:49;95402.19;;;13.96;48.19
14067;BME280;7108;42.684;23.350;2023-02-21T10:37:38;95409.81;;;14.27;48.45
14067;BME280;7108;42.684;23.350;2023-02-21T10:43:21;95391.63;;;14.88;39.96
14067;BME280;7108;42.684;23.350;2023-02-21T10:45:54;95379.78;;;15.27;37.44
14067;BME280;7108;42.684;23.350;2023-02-21T10:48:26;95365.09;;;15.42;36.71
14067;BME280;7108;42.684;23.350;2023-02-21T10:58:34;95358.97;;;16.11;35.12
14067;BME280;7108;42.684;23.350;2023-02-21T11:01:11;95354.28;;;16.15;34.88
14067;BME280;7108;42.684;23.350;2023-02-21T11:03:42;95341.47;;;16.19;34.40
14067;BME280;7108;42.684;23.350;2023-02-21T11:06:21;95335.28;;;16.22;34.56
14067;BME280;7108;42.684;23.350;2023-02-21T11:08:48;95332.94;;;16.34;33.86
14067;BME280;7108;42.684;23.350;2023-02-21T11:11:21;95352.34;;;16.50;33.93
14067;BME280;7108;42.684;23.350;2023-02-21T11:14:06;95343.78;;;16.55;33.16
14067;BME280;7108;42.684;23.350;2023-02-21T11:16:42;95323.97;;;16.54;32.81
14067;BME280;7108;42.684;23.350;2023-02-21T11:19:12;95330.94;;;16.62;33.24
14067;BME280;7108;42.684;23.350;2023-02-21T11:21:38;95320.00;;;16.73;34.18
14067;BME280;7108;42.684;23.350;2023-02-21T11:24:05;95323.47;;;16.87;32.85
14067;BME280;7108;42.684;23.350;2023-02-21T11:26:37;95313.34;;;16.95;32.61
14067;BME280;7108;42.684;23.350;2023-02-21T11:29:11;95311.31;;;17.12;32.39
14067;BME280;7108;42.684;23.350;2023-02-21T11:31:38;95300.78;;;17.14;32.62
14067;BME280;7108;42.684;23.350;2023-02-21T11:34:05;95306.22;;;17.21;32.47
14067;BME280;7108;42.684;23.350;2023-02-21T11:36:34;95306.22;;;17.21;32.08
14067;BME280;7108;42.684;23.350;2023-02-21T11:39:14;95301.16;;;17.23;31.91
14067;BME280;7108;42.684;23.350;2023-02-21T11:41:54;95283.63;;;17.24;31.59
14067;BME280;7108;42.684;23.350;2023-02-21T11:44:39;95283.22;;;17.29;31.77
14067;BME280;7108;42.684;23.350;2023-02-21T11:50:12;95284.34;;;17.39;32.46
14067;BME280;7108;42.684;23.350;2023-02-21T11:52:47;95279.28;;;17.44;32.15
14067;BME280;7108;42.684;23.350;2023-02-21T11:55:17;95272.25;;;17.47;31.91
14067;BME280;7108;42.684;23.350;2023-02-21T12:00:40;95258.22;;;17.48;32.18
14067;BME280;7108;42.684;23.350;2023-02-21T12:19:48;95221.44;;;18.10;31.72
14067;BME280;7108;42.684;23.350;2023-02-21T12:25:30;95215.31;;;17.99;31.97
14067;BME280;7108;42.684;23.350;2023-02-21T12:37:11;95204.16;;;17.87;32.17
14067;BME280;7108;42.684;23.350;2023-02-21T12:43:13;95199.34;;;18.01;31.83
14067;BME280;7108;42.684;23.350;2023-02-21T12:50:35;95173.44;;;18.23;31.78
14067;BME280;7108;42.684;23.350;2023-02-21T12:55:47;95174.66;;;18.19;33.10
14067;BME280;7108;42.684;23.350;2023-02-21T12:58:47;95169.56;;;18.21;32.08
14067;BME280;7108;42.684;23.350;2023-02-21T13:01:24;95186.41;;;18.45;31.87
14067;BME280;7108;42.684;23.350;2023-02-21T13:09:24;95160.66;;;18.13;31.46
14067;BME280;7108;42.684;23.350;2023-02-21T13:14:44;95170.94;;;18.36;31.55
14067;BME280;7108;42.684;23.350;2023-02-21T13:17:15;95147.25;;;18.29;31.67
14067;BME280;7108;42.684;23.350;2023-02-21T13:19:54;95152.63;;;18.36;30.94
14067;BME280;7108;42.684;23.350;2023-02-21T13:28:32;95147.59;;;18.31;31.63
14067;BME280;7108;42.684;23.350;2023-02-21T13:31:16;95148.28;;;18.39;31.27
14067;BME280;7108;42.684;23.350;2023-02-21T13:33:44;95145.13;;;18.43;31.54
14067;BME280;7108;42.684;23.350;2023-02-21T13:41:44;95140.63;;;18.30;31.16
14067;BME280;7108;42.684;23.350;2023-02-21T13:44:41;95146.41;;;18.36;31.07
14067;BME280;7108;42.684;23.350;2023-02-21T13:47:17;95134.03;;;18.28;30.48
14067;BME280;7108;42.684;23.350;2023-02-21T14:03:09;95132.47;;;18.27;31.39
14067;BME280;7108;42.684;23.350;2023-02-21T14:09:33;95129.81;;;18.20;30.87
14067;BME280;7108;42.684;23.350;2023-02-21T14:11:33;95125.56;;;18.19;31.03
14067;BME280;7108;42.684;23.350;2023-02-21T14:14:26;95125.56;;;18.15;31.22
14067;BME280;7108;42.684;23.350;2023-02-21T14:17:11;95130.25;;;18.18;31.08
14067;BME280;7108;42.684;23.350;2023-02-21T14:19:48;95123.63;;;18.16;30.92
14067;BME280;7108;42.684;23.350;2023-02-21T14:22:22;95119.38;;;18.11;30.88
14067;BME280;7108;42.684;23.350;2023-02-21T14:24:51;95109.88;;;17.89;30.31
14067;BME280;7108;42.684;23.350;2023-02-21T14:32:34;95121.59;;;17.90;30.48
14067;BME280;7108;42.684;23.350;2023-02-21T14:37:44;95102.22;;;17.81;30.43
14067;BME280;7108;42.684;23.350;2023-02-21T14:48:39;95122.47;;;17.80;30.10
14067;BME280;7108;42.684;23.350;2023-02-21T15:05:27;95112.31;;;17.44;30.74
14067;BME280;7108;42.684;23.350;2023-02-21T15:11:01;95101.16;;;17.24;31.24
14067;BME280;7108;42.684;23.350;2023-02-21T15:13:31;95094.66;;;17.15;31.21
14067;BME280;7108;42.684;23.350;2023-02-21T15:16:09;95100.50;;;17.13;30.78
14067;BME280;7108;42.684;23.350;2023-02-21T15:18:39;95109.41;;;17.17;31.15
14067;BME280;7108;42.684;23.350;2023-02-21T15:23:38;95118.75;;;17.13;31.16
14067;BME280;7108;42.684;23.350;2023-02-21T15:26:27;95117.63;;;17.07;31.87
14067;BME280;7108;42.684;23.350;2023-02-21T15:29:16;95116.91;;;17.03;31.53
14067;BME280;7108;42.684;23.350;2023-02-21T15:31:46;95103.38;;;16.93;31.66
14067;BME280;7108;42.684;23.350;2023-02-21T15:34:38;95112.34;;;16.86;31.69
14067;BME280;7108;42.684;23.350;2023-02-21T15:37:17;95133.31;;;16.93;31.74
14067;BME280;7108;42.684;23.350;2023-02-21T15:39:54;95126.81;;;16.73;31.59
14067;BME280;7108;42.684;23.350;2023-02-21T15:42:22;95119.47;;;16.70;31.60
14067;BME280;7108;42.684;23.350;2023-02-21T15:44:54;95146.59;;;16.80;31.83
14067;BME280;7108;42.684;23.350;2023-02-21T15:47:22;95141.66;;;16.65;31.55
14067;BME280;7108;42.684;23.350;2023-02-21T15:52:35;95137.03;;;16.58;31.78
14067;BME280;7108;42.684;23.350;2023-02-21T16:05:52;95147.69;;;16.18;32.36
14067;BME280;7108;42.684;23.350;2023-02-21T16:08:17;95147.28;;;16.13;32.45
14067;BME280;7108;42.684;23.350;2023-02-21T16:10:44;95133.81;;;15.88;32.39
14067;BME280;7108;42.684;23.350;2023-02-21T16:13:10;95141.56;;;15.93;32.63
14067;BME280;7108;42.684;23.350;2023-02-21T16:15:36;95148.91;;;15.89;32.61
14067;BME280;7108;42.684;23.350;2023-02-21T16:18:10;95155.94;;;15.83;32.88
14067;BME280;7108;42.684;23.350;2023-02-21T16:20:42;95157.91;;;15.73;33.73
14067;BME280;7108;42.684;23.350;2023-02-21T16:28:43;95175.78;;;15.39;35.02